createdAt,value
2019-02-03T00:00:26.312Z,61.67
2019-02-03T00:02:55.479Z,67.40
2019-02-03T00:05:25.301Z,67.40
2019-02-03T00:07:56.657Z,65.73
2019-02-03T00:10:25.740Z,64.90
2019-02-03T00:12:55.463Z,65.93
2019-02-03T00:15:24.474Z,64.17
2019-02-03T00:17:53.308Z,63.03
2019-02-03T00:20:22.526Z,66.67
2019-02-03T00:22:51.398Z,63.83
2019-02-03T00:25:20.250Z,70.27
2019-02-03T00:27:49.188Z,66.03
2019-02-03T00:30:19.288Z,64.43
2019-02-03T00:32:51.568Z,64.47
2019-02-03T00:35:20.700Z,67.77
2019-02-03T00:37:49.932Z,66.37
2019-02-03T00:40:18.927Z,63.13
2019-02-03T00:42:47.817Z,64.00
2019-02-03T00:45:17.424Z,62.90
2019-02-03T00:47:46.508Z,65.13
2019-02-03T00:50:16.777Z,64.83
2019-02-03T00:52:46.935Z,62.57
2019-02-03T00:55:17.874Z,65.50
2019-02-03T00:57:46.758Z,63.43
2019-02-03T01:00:17.590Z,65.87
2019-02-03T01:02:47.095Z,63.57
2019-02-03T01:05:19.662Z,67.77
2019-02-03T01:07:49.170Z,66.60
2019-02-03T01:10:20.690Z,65.53
2019-02-03T01:12:51.668Z,63.47
2019-02-03T01:15:20.724Z,64.20
2019-02-03T01:17:49.601Z,66.43
2019-02-03T01:20:22.684Z,63.57
2019-02-03T01:22:52.398Z,62.40
2019-02-03T01:25:21.665Z,58.37
2019-02-03T01:27:51.539Z,67.83
2019-02-03T01:30:23.425Z,62.57
2019-02-03T01:32:52.667Z,61.60
2019-02-03T01:35:21.827Z,67.07
2019-02-03T01:37:51.528Z,62.37
2019-02-03T01:40:21.296Z,62.70
2019-02-03T01:42:50.334Z,62.63
2019-02-03T01:45:21.130Z,60.23
2019-02-03T01:47:51.411Z,58.83
2019-02-03T01:50:20.451Z,60.87
2019-02-03T01:52:49.416Z,65.47
2019-02-03T01:55:21.070Z,64.90
2019-02-03T01:57:50.154Z,59.47
2019-02-03T02:00:21.085Z,57.67
2019-02-03T02:02:53.097Z,65.27
2019-02-03T02:05:22.084Z,60.03
2019-02-03T02:07:52.192Z,59.67
2019-02-03T02:10:23.630Z,59.27
2019-02-03T02:12:54.033Z,56.47
2019-02-03T02:15:23.343Z,57.70
2019-02-03T02:17:53.238Z,60.73
2019-02-03T02:20:24.207Z,62.20
2019-02-03T02:22:53.180Z,56.83
2019-02-03T02:25:22.191Z,57.30
2019-02-03T02:27:51.340Z,55.00
2019-02-03T02:30:23.525Z,54.87
2019-02-03T02:32:53.257Z,56.53
2019-02-03T02:35:22.189Z,56.87
2019-02-03T02:38:05.158Z,54.13
2019-02-03T02:40:23.439Z,57.77
2019-02-03T02:42:52.544Z,54.57
2019-02-03T02:45:22.575Z,56.10
2019-02-03T02:47:51.703Z,56.50
2019-02-03T02:50:23.317Z,57.70
2019-02-03T02:52:52.392Z,56.13
2019-02-03T02:55:21.917Z,57.90
2019-02-03T02:57:51.485Z,57.53
2019-02-03T03:00:22.683Z,59.30
2019-02-03T03:02:51.644Z,59.03
2019-02-03T03:05:20.938Z,57.73
2019-02-03T03:07:49.954Z,58.60
2019-02-03T03:10:20.353Z,56.87
2019-02-03T03:12:49.770Z,57.43
2019-02-03T03:15:20.870Z,56.30
2019-02-03T03:17:50.213Z,55.17
2019-02-03T03:20:21.098Z,57.00
2019-02-03T03:22:50.704Z,56.70
2019-02-03T03:25:21.931Z,61.67
2019-02-03T03:27:51.128Z,57.27
2019-02-03T03:30:22.411Z,62.40
2019-02-03T03:32:51.287Z,62.30
2019-02-03T03:35:20.352Z,60.30
2019-02-03T03:37:49.382Z,59.47
2019-02-03T03:40:20.847Z,61.60
2019-02-03T03:42:49.738Z,61.07
2019-02-03T03:45:19.100Z,58.83
2019-02-03T03:47:48.283Z,60.60
2019-02-03T03:50:17.724Z,58.67
2019-02-03T03:52:46.829Z,60.10
2019-02-03T03:55:16.158Z,63.60
2019-02-03T03:57:45.456Z,62.30
2019-02-03T04:00:17.339Z,58.90
2019-02-03T04:02:46.434Z,61.67
2019-02-03T04:05:15.472Z,60.80
2019-02-03T04:07:44.455Z,60.53
2019-02-03T04:10:15.653Z,59.93
2019-02-03T04:12:45.558Z,60.80
2019-02-03T04:15:18.679Z,57.17
2019-02-03T04:17:48.148Z,60.93
2019-02-03T04:20:19.938Z,59.80
2019-02-03T04:22:49.734Z,59.90
2019-02-03T04:25:18.953Z,54.77
2019-02-03T04:27:47.977Z,57.90
2019-02-03T04:30:20.053Z,57.63
2019-02-03T04:32:49.793Z,56.97
2019-02-03T04:35:19.088Z,58.87
2019-02-03T04:37:48.089Z,55.53
2019-02-03T04:40:19.192Z,54.70
2019-02-03T04:42:48.656Z,57.73
2019-02-03T04:45:22.286Z,55.63
2019-02-03T04:47:49.671Z,54.93
2019-02-03T04:50:20.594Z,57.57
2019-02-03T04:52:49.761Z,55.37
2019-02-03T04:55:21.130Z,53.37
2019-02-03T04:57:50.549Z,53.17
2019-02-03T05:00:21.656Z,51.63
2019-02-03T05:02:50.947Z,57.63
2019-02-03T05:05:20.247Z,54.47
2019-02-03T05:07:49.496Z,52.97
2019-02-03T05:10:19.202Z,53.93
2019-02-03T05:12:48.186Z,55.73
2019-02-03T05:15:19.090Z,55.73
2019-02-03T05:17:49.433Z,51.20
2019-02-03T05:20:20.704Z,58.77
2019-02-03T05:22:50.511Z,54.63
2019-02-03T05:25:19.396Z,56.50
2019-02-03T05:27:48.389Z,55.27
2019-02-03T05:30:19.755Z,55.97
2019-02-03T05:32:48.745Z,55.30
2019-02-03T05:35:20.183Z,51.47
2019-02-03T05:37:50.389Z,53.27
2019-02-03T05:40:19.329Z,54.43
2019-02-03T05:42:48.702Z,54.50
2019-02-03T05:45:19.953Z,51.83
2019-02-03T05:47:50.250Z,53.50
2019-02-03T05:50:21.079Z,54.73
2019-02-03T05:52:51.571Z,53.23
2019-02-03T05:55:20.944Z,54.63
2019-02-03T05:57:49.903Z,52.50
2019-02-03T06:00:23.099Z,51.00
2019-02-03T06:02:52.072Z,52.43
2019-02-03T06:05:21.160Z,52.43
2019-02-03T06:07:51.015Z,56.27
2019-02-03T06:10:20.219Z,53.63
2019-02-03T06:12:49.083Z,54.93
2019-02-03T06:15:18.441Z,54.63
2019-02-03T06:17:47.350Z,56.10
2019-02-03T06:20:18.032Z,55.10
2019-02-03T06:22:48.160Z,53.70
2019-02-03T06:25:17.679Z,53.30
2019-02-03T06:27:46.549Z,51.90
2019-02-03T06:30:17.759Z,48.50
2019-02-03T06:32:46.707Z,51.47
2019-02-03T06:35:15.499Z,53.57
2019-02-03T06:37:44.329Z,53.60
2019-02-03T06:40:14.197Z,52.83
2019-02-03T06:42:43.060Z,54.00
2019-02-03T06:45:13.871Z,50.30
2019-02-03T06:47:42.723Z,52.40
2019-02-03T06:50:12.355Z,49.67
2019-02-03T06:52:41.323Z,48.90
2019-02-03T06:55:10.762Z,48.27
2019-02-03T06:57:39.808Z,45.70
2019-02-03T07:00:12.746Z,46.30
2019-02-03T07:02:42.036Z,48.70
2019-02-03T07:05:11.227Z,45.40
2019-02-03T07:07:40.231Z,43.73
2019-02-03T07:10:11.890Z,45.97
2019-02-03T07:12:40.938Z,47.17
2019-02-03T07:15:11.870Z,43.27
2019-02-03T07:17:40.958Z,42.70
2019-02-03T07:20:12.711Z,42.40
2019-02-03T07:22:41.529Z,40.80
2019-02-03T07:25:10.639Z,44.30
2019-02-03T07:27:39.546Z,38.80
2019-02-03T07:30:11.441Z,40.67
2019-02-03T07:32:40.590Z,41.10
2019-02-03T07:35:10.036Z,38.40
2019-02-03T07:37:38.930Z,39.63
2019-02-03T07:40:12.741Z,39.20
2019-02-03T07:42:41.966Z,37.87
2019-02-03T07:45:10.910Z,36.47
2019-02-03T07:47:40.178Z,34.77
2019-02-03T07:50:11.836Z,32.60
2019-02-03T07:52:40.997Z,32.23
2019-02-03T07:55:11.401Z,32.40
2019-02-03T07:57:41.347Z,31.90
2019-02-03T08:00:12.713Z,30.27
2019-02-03T08:02:41.543Z,30.50
2019-02-03T08:05:11.902Z,29.40
2019-02-03T08:07:40.867Z,29.87
2019-02-03T08:10:23.854Z,30.57
2019-02-03T08:12:43.281Z,29.37
2019-02-03T08:15:15.077Z,31.73
2019-02-03T08:17:45.478Z,29.20
2019-02-03T08:20:17.116Z,27.83
2019-02-03T08:22:46.841Z,27.20
2019-02-03T08:25:17.111Z,30.17
2019-02-03T08:27:47.549Z,28.30
2019-02-03T08:30:19.699Z,27.37
2019-02-03T08:32:48.708Z,26.13
2019-02-03T08:35:19.907Z,28.23
2019-02-03T08:37:48.310Z,24.90
2019-02-03T08:40:19.801Z,24.47
2019-02-03T08:42:48.832Z,26.90
2019-02-03T08:45:20.370Z,22.87
2019-02-03T08:47:49.636Z,23.53
2019-02-03T08:50:20.572Z,25.13
2019-02-03T08:52:51.433Z,25.03
2019-02-03T08:55:20.997Z,21.67
2019-02-03T08:57:50.065Z,19.63
2019-02-03T09:00:21.729Z,18.63
2019-02-03T09:02:50.926Z,17.40
2019-02-03T09:05:20.093Z,18.00
2019-02-03T09:07:49.432Z,18.63
2019-02-03T09:10:20.773Z,16.63
2019-02-03T09:12:49.834Z,15.10
2019-02-03T09:15:21.433Z,13.63
2019-02-03T09:17:51.790Z,13.27
2019-02-03T09:20:23.705Z,14.83
2019-02-03T09:22:52.750Z,14.50
2019-02-03T09:25:21.989Z,16.50
2019-02-03T09:27:51.754Z,13.97
2019-02-03T09:30:22.874Z,14.50
2019-02-03T09:32:51.999Z,12.53
2019-02-03T09:35:21.108Z,13.93
2019-02-03T09:37:50.193Z,12.97
2019-02-03T09:40:22.210Z,11.63
2019-02-03T09:42:51.132Z,11.00
2019-02-03T09:45:22.049Z,11.03
2019-02-03T09:47:51.589Z,11.67
2019-02-03T09:50:22.949Z,11.27
2019-02-03T09:52:52.963Z,10.87
2019-02-03T09:55:21.913Z,11.30
2019-02-03T09:57:50.825Z,11.10
2019-02-03T10:00:22.917Z,12.40
2019-02-03T10:02:52.189Z,12.10
2019-02-03T10:05:21.510Z,10.93
2019-02-03T10:07:51.315Z,11.70
2019-02-03T10:10:23.013Z,10.87
2019-02-03T10:12:52.933Z,10.30
2019-02-03T10:15:21.936Z,10.80
2019-02-03T10:17:50.989Z,11.77
2019-02-03T10:20:22.465Z,10.00
2019-02-03T10:22:51.609Z,9.30
2019-02-03T10:25:23.346Z,10.83
2019-02-03T10:27:52.548Z,9.10
2019-02-03T10:30:23.117Z,10.43
2019-02-03T10:32:52.411Z,10.70
2019-02-03T10:35:24.380Z,9.90
2019-02-03T10:37:53.575Z,9.20
2019-02-03T10:40:25.136Z,8.40
2019-02-03T10:42:56.389Z,7.70
2019-02-03T10:45:25.895Z,8.70
2019-02-03T10:47:55.316Z,9.97
2019-02-03T10:50:27.049Z,9.20
2019-02-03T10:52:56.445Z,8.07
2019-02-03T10:55:25.993Z,8.50
2019-02-03T10:57:56.146Z,8.27
2019-02-03T11:00:27.821Z,6.70
2019-02-03T11:02:56.878Z,7.53
2019-02-03T11:05:35.139Z,9.20
2019-02-03T11:08:04.846Z,8.03
2019-02-03T11:10:34.690Z,8.10
2019-02-03T11:13:03.857Z,8.37
2019-02-03T11:15:33.639Z,8.13
2019-02-03T11:18:02.778Z,7.80
2019-02-03T11:20:33.441Z,7.50
2019-02-03T11:23:02.523Z,7.10
2019-02-03T11:25:34.664Z,7.90
2019-02-03T11:28:04.364Z,7.13
2019-02-03T11:30:33.565Z,7.93
2019-02-03T11:33:06.335Z,7.53
2019-02-03T11:35:33.503Z,7.50
2019-02-03T11:38:03.396Z,7.77
2019-02-03T11:40:34.944Z,7.27
2019-02-03T11:43:04.979Z,7.60
2019-02-03T11:45:36.499Z,7.30
2019-02-03T11:48:08.367Z,7.47
2019-02-03T11:50:39.949Z,8.67
2019-02-03T11:53:11.229Z,7.40
2019-02-03T11:55:40.696Z,7.40
2019-02-03T11:58:10.734Z,7.50
2019-02-03T12:00:40.167Z,7.10
2019-02-03T12:03:10.002Z,6.77
2019-02-03T12:05:39.211Z,6.83
2019-02-03T12:08:09.030Z,6.77
2019-02-03T12:10:38.432Z,6.07
2019-02-03T12:13:08.102Z,5.70
2019-02-03T12:15:39.040Z,6.60
2019-02-03T12:18:07.926Z,6.93
2019-02-03T12:20:37.004Z,7.20
2019-02-03T12:23:06.210Z,6.53
2019-02-03T12:25:38.039Z,5.83
2019-02-03T12:28:07.568Z,6.63
2019-02-03T12:30:37.128Z,6.73
2019-02-03T12:33:07.305Z,6.43
2019-02-03T12:35:37.201Z,8.03
2019-02-03T12:38:07.046Z,6.63
2019-02-03T12:40:38.751Z,6.50
2019-02-03T12:43:10.471Z,6.60
2019-02-03T12:45:41.218Z,6.00
2019-02-03T12:48:10.835Z,6.57
2019-02-03T12:50:40.023Z,6.90
2019-02-03T12:53:09.457Z,7.07
2019-02-03T12:55:39.458Z,7.53
2019-02-03T12:58:08.408Z,7.63
2019-02-03T13:00:38.126Z,6.40
2019-02-03T13:03:08.572Z,6.83
2019-02-03T13:05:37.685Z,6.80
2019-02-03T13:08:07.406Z,8.20
2019-02-03T13:10:38.531Z,6.73
2019-02-03T13:13:08.816Z,6.77
2019-02-03T13:15:41.631Z,5.67
2019-02-03T13:18:11.710Z,6.80
2019-02-03T13:20:42.643Z,5.87
2019-02-03T13:23:12.243Z,5.60
2019-02-03T13:25:41.511Z,6.33
2019-02-03T13:28:11.659Z,6.13
2019-02-03T13:30:43.168Z,6.27
2019-02-03T13:33:13.890Z,6.17
2019-02-03T13:35:43.283Z,5.27
2019-02-03T13:38:12.541Z,6.30
2019-02-03T13:40:41.537Z,6.27
2019-02-03T13:43:11.370Z,5.53
2019-02-03T13:45:40.632Z,5.80
2019-02-03T13:48:10.161Z,13.17
2019-02-03T13:50:39.550Z,9.90
2019-02-03T13:53:08.739Z,9.20
2019-02-03T13:55:37.696Z,6.37
2019-02-03T13:58:06.819Z,7.60
2019-02-03T14:00:38.646Z,7.47
2019-02-03T14:03:08.408Z,9.73
2019-02-03T14:05:37.470Z,7.33
2019-02-03T14:08:07.106Z,6.63
2019-02-03T14:10:36.798Z,7.60
2019-02-03T14:13:08.175Z,6.37
2019-02-03T14:15:37.325Z,6.93
2019-02-03T14:18:06.898Z,7.53
2019-02-03T14:20:36.168Z,7.07
2019-02-03T14:23:05.085Z,6.00
2019-02-03T14:25:35.634Z,5.60
2019-02-03T14:28:04.813Z,6.33
2019-02-03T14:30:41.069Z,6.40
2019-02-03T14:33:17.626Z,5.83
2019-02-03T14:35:47.642Z,5.70
2019-02-03T14:38:17.072Z,7.47
2019-02-03T14:40:46.100Z,6.83
2019-02-03T14:43:15.214Z,6.30
2019-02-03T14:45:44.051Z,6.53
2019-02-03T14:48:13.045Z,6.40
2019-02-03T14:50:42.653Z,6.50
2019-02-03T14:53:13.323Z,5.80
2019-02-03T14:55:45.427Z,7.20
2019-02-03T14:58:15.127Z,6.50
2019-02-03T15:00:46.678Z,7.00
2019-02-03T15:03:17.566Z,7.60
2019-02-03T15:05:46.676Z,8.60
2019-02-03T15:08:15.903Z,6.30
2019-02-03T15:10:44.788Z,5.50
2019-02-03T15:13:14.967Z,5.80
2019-02-03T15:15:44.797Z,5.70
2019-02-03T15:18:13.993Z,6.23
2019-02-03T15:20:43.672Z,6.47
2019-02-03T15:23:12.757Z,5.93
2019-02-03T15:25:41.758Z,7.03
2019-02-03T15:28:11.539Z,12.10
2019-02-03T15:30:43.424Z,16.30
2019-02-03T15:33:12.382Z,11.90
2019-02-03T15:35:44.275Z,8.10
2019-02-03T15:38:13.579Z,8.80
2019-02-03T15:40:42.962Z,7.87
2019-02-03T15:43:24.672Z,7.20
2019-02-03T15:45:44.993Z,6.47
2019-02-03T15:48:13.979Z,6.23
2019-02-03T15:50:43.760Z,7.93
2019-02-03T15:53:12.827Z,7.67
2019-02-03T15:55:41.968Z,6.83
2019-02-03T15:58:12.772Z,7.90
2019-02-03T16:00:44.806Z,9.30
2019-02-03T16:03:13.823Z,8.00
2019-02-03T16:05:42.824Z,7.40
2019-02-03T16:08:12.297Z,8.17
2019-02-03T16:10:42.073Z,7.50
2019-02-03T16:13:11.346Z,7.03
2019-02-03T16:15:40.934Z,6.77
2019-02-03T16:18:10.306Z,7.33
2019-02-03T16:20:39.800Z,7.30
2019-02-03T16:23:08.858Z,7.53
2019-02-03T16:25:37.875Z,8.63
2019-02-03T16:28:06.966Z,9.27
2019-02-03T16:30:38.644Z,8.67
2019-02-03T16:33:09.902Z,8.80
2019-02-03T16:35:39.570Z,9.97
2019-02-03T16:38:21.986Z,8.33
2019-02-03T16:40:40.282Z,10.30
2019-02-03T16:43:09.651Z,12.83
2019-02-03T16:45:38.692Z,12.13
2019-02-03T16:48:08.710Z,9.50
2019-02-03T16:50:38.031Z,10.60
2019-02-03T16:53:08.353Z,9.00
2019-02-03T16:55:37.325Z,9.47
2019-02-03T16:58:07.275Z,8.37
2019-02-03T17:00:36.361Z,8.53
2019-02-03T17:03:06.057Z,9.23
2019-02-03T17:05:35.060Z,8.20
2019-02-03T17:08:05.343Z,8.50
2019-02-03T17:10:34.263Z,8.67
2019-02-03T17:13:06.366Z,8.23
2019-02-03T17:15:38.466Z,7.43
2019-02-03T17:18:09.660Z,8.60
2019-02-03T17:20:38.590Z,8.40
2019-02-03T17:23:12.396Z,11.13
2019-02-03T17:25:44.131Z,8.93
2019-02-03T17:28:13.919Z,9.30
2019-02-03T17:30:46.620Z,9.70
2019-02-03T17:33:16.603Z,10.40
2019-02-03T17:35:53.829Z,11.40
2019-02-03T17:38:16.795Z,11.13
2019-02-03T17:40:45.921Z,14.43
2019-02-03T17:43:15.602Z,15.77
2019-02-03T17:45:45.959Z,15.00
2019-02-03T17:48:15.762Z,15.00
2019-02-03T17:50:47.538Z,12.77
2019-02-03T17:53:16.585Z,14.30
2019-02-03T17:55:45.918Z,15.60
2019-02-03T17:58:15.612Z,12.67
2019-02-03T18:00:46.357Z,11.70
2019-02-03T18:03:15.672Z,12.17
2019-02-03T18:05:44.887Z,12.20
2019-02-03T18:08:14.510Z,14.20
2019-02-03T18:10:44.251Z,13.73
2019-02-03T18:13:13.201Z,12.50
2019-02-03T18:15:42.232Z,12.70
2019-02-03T18:18:13.489Z,13.47
2019-02-03T18:20:44.895Z,13.83
2019-02-03T18:23:15.205Z,14.07
2019-02-03T18:25:44.378Z,15.10
2019-02-03T18:28:13.560Z,13.20
2019-02-03T18:30:45.152Z,12.33
2019-02-03T18:33:15.029Z,13.33
2019-02-03T18:35:46.224Z,12.97
2019-02-03T18:38:15.841Z,14.60
2019-02-03T18:40:46.339Z,12.60
2019-02-03T18:43:16.804Z,13.43
2019-02-03T18:45:47.188Z,12.20
2019-02-03T18:48:16.456Z,13.73
2019-02-03T18:50:47.060Z,12.20
2019-02-03T18:53:15.947Z,11.50
2019-02-03T18:55:45.776Z,12.20
2019-02-03T18:58:16.456Z,12.00
2019-02-03T19:00:49.492Z,12.40
2019-02-03T19:03:18.726Z,13.43
2019-02-03T19:05:47.744Z,14.00
2019-02-03T19:08:18.552Z,14.20
2019-02-03T19:10:48.364Z,13.57
2019-02-03T19:13:18.810Z,13.57
2019-02-03T19:15:47.824Z,15.47
2019-02-03T19:18:17.294Z,14.23
2019-02-03T19:20:46.532Z,14.70
2019-02-03T19:23:15.636Z,15.90
2019-02-03T19:25:45.445Z,14.53
2019-02-03T19:28:15.174Z,13.57
2019-02-03T19:30:45.973Z,14.70
2019-02-03T19:33:15.417Z,14.00
2019-02-03T19:35:44.504Z,13.10
2019-02-03T19:38:14.988Z,14.00
2019-02-03T19:40:44.020Z,14.77
2019-02-03T19:43:13.525Z,14.40
2019-02-03T19:45:43.054Z,15.80
2019-02-03T19:48:12.268Z,15.80
2019-02-03T19:50:42.953Z,13.37
2019-02-03T19:53:12.949Z,14.37
2019-02-03T19:55:42.391Z,15.03
2019-02-03T19:58:12.770Z,12.67
2019-02-03T20:00:43.979Z,14.20
2019-02-03T20:03:13.353Z,13.00
2019-02-03T20:05:43.296Z,13.27
2019-02-03T20:08:17.336Z,14.13
2019-02-03T20:10:46.438Z,14.87
2019-02-03T20:13:16.297Z,17.20
2019-02-03T20:15:47.621Z,16.87
2019-02-03T20:18:18.239Z,16.20
2019-02-03T20:20:49.683Z,16.17
2019-02-03T20:23:19.490Z,13.87
2019-02-03T20:25:50.882Z,13.47
2019-02-03T20:28:19.993Z,12.93
2019-02-03T20:30:49.369Z,11.80
2019-02-03T20:33:18.313Z,13.20
2019-02-03T20:35:47.835Z,11.87
2019-02-03T20:38:18.318Z,11.87
2019-02-03T20:40:47.471Z,12.80
2019-02-03T20:43:16.724Z,12.67
2019-02-03T20:45:49.634Z,12.53
2019-02-03T20:48:18.284Z,13.33
2019-02-03T20:50:49.783Z,14.20
2019-02-03T20:53:19.188Z,13.37
2019-02-03T20:55:48.176Z,12.93
2019-02-03T20:58:17.265Z,12.93
2019-02-03T21:00:46.676Z,13.63
2019-02-03T21:03:22.338Z,12.20
2019-02-03T21:05:51.527Z,13.43
2019-02-03T21:08:23.636Z,14.30
2019-02-03T21:10:52.653Z,13.07
2019-02-03T21:13:21.607Z,13.47
2019-02-03T21:15:50.923Z,13.30
2019-02-03T21:18:20.298Z,13.30
2019-02-03T21:20:52.104Z,14.33
2019-02-03T21:23:22.695Z,17.40
2019-02-03T21:25:55.113Z,17.60
2019-02-03T21:28:26.147Z,19.60
2019-02-03T21:30:59.027Z,18.63
2019-02-03T21:33:29.605Z,18.23
2019-02-03T21:36:00.153Z,17.17
2019-02-03T21:38:29.171Z,18.00
2019-02-03T21:41:00.344Z,16.57
2019-02-03T21:43:30.039Z,18.20
2019-02-03T21:45:59.012Z,17.70
2019-02-03T21:48:30.979Z,17.07
2019-02-03T21:51:01.864Z,18.60
2019-02-03T21:53:30.801Z,17.87
2019-02-03T21:56:00.352Z,17.90
2019-02-03T21:58:30.703Z,18.43
2019-02-03T22:00:59.599Z,18.20
2019-02-03T22:03:30.786Z,19.47
2019-02-03T22:06:02.739Z,18.33
2019-02-03T22:08:31.615Z,18.50
2019-02-03T22:11:02.063Z,18.50
2019-02-03T22:13:32.717Z,18.17
2019-02-03T22:16:02.541Z,17.20
2019-02-03T22:18:31.337Z,16.60
2019-02-03T22:21:00.556Z,18.73
2019-02-03T22:23:29.541Z,16.60
2019-02-03T22:25:58.423Z,19.97
2019-02-03T22:28:28.258Z,19.23
2019-02-03T22:30:57.495Z,20.70
2019-02-03T22:33:27.867Z,21.33
2019-02-03T22:35:56.758Z,20.03
2019-02-03T22:38:25.688Z,20.20
2019-02-03T22:40:56.886Z,18.30
2019-02-03T22:43:25.810Z,19.13
2019-02-03T22:45:54.745Z,18.67
2019-02-03T22:48:27.643Z,17.63
2019-02-03T22:50:57.839Z,19.37
2019-02-03T22:53:28.291Z,19.40
2019-02-03T22:55:59.191Z,16.87
2019-02-03T22:58:28.145Z,19.20
2019-02-03T23:01:00.186Z,17.23
2019-02-03T23:03:31.773Z,17.87
2019-02-03T23:06:00.812Z,17.90
2019-02-03T23:08:29.961Z,16.20
2019-02-03T23:10:59.000Z,17.50
2019-02-03T23:13:27.777Z,17.20
2019-02-03T23:15:56.939Z,17.00
2019-02-03T23:18:26.124Z,18.00
2019-02-03T23:20:55.534Z,17.53
2019-02-03T23:23:24.346Z,18.43
2019-02-03T23:25:53.560Z,16.80
2019-02-03T23:28:22.917Z,17.27
2019-02-03T23:30:51.861Z,18.50
2019-02-03T23:33:21.160Z,19.67
2019-02-03T23:35:50.043Z,18.37
2019-02-03T23:38:19.009Z,18.50
2019-02-03T23:40:47.790Z,18.20
2019-02-03T23:43:17.299Z,17.93
2019-02-03T23:45:46.153Z,19.60
2019-02-03T23:48:15.072Z,20.20
2019-02-03T23:50:43.995Z,20.80
2019-02-03T23:53:12.871Z,20.60
2019-02-03T23:55:43.015Z,19.07
2019-02-03T23:58:12.533Z,18.13
